Time;durP1;ratioP1;P1;durP2;ratioP2;P2;SDS_P1;SDS_P2;PMS_P1;PMS_P2;Temp;Humidity;BMP_temperature;BMP_pressure;BME280_temperature;BME280_humidity;BME280_pressure;Samples;Min_cycle;Max_cycle;Signal;HPM_P1;HPM_P2
2022/03/18 00:54:00;;;;;;;;;16.50;9.75;;;;;;;;4363604;32;51523;-53
2022/03/18 00:56:47;;;;;;;;;15.25;10.25;;;;;;;;5117339;27;51160;-52
2022/03/18 00:59:33;;;;;;;;;15.00;10.00;;;;;;;;5107257;27;51149;-53
2022/03/18 01:02:39;;;;;;;;;11.75;9.00;;;;;;;;5097069;27;51109;-54
2022/03/18 01:05:24;;;;;;;;;12.50;8.50;;;;;;;;5097082;27;51416;-56
2022/03/18 01:08:11;;;;;;;;;11.75;8.00;;;;;;;;5096807;27;51046;-53
2022/03/18 01:10:55;;;;;;;;;14.50;9.00;;;;;;;;5095666;27;51098;-54
2022/03/18 01:13:39;;;;;;;;;17.25;11.75;;;;;;;;5096856;27;51361;-50
2022/03/18 01:16:25;;;;;;;;;16.50;11.00;;;;;;;;5115724;27;51492;-57
2022/03/18 01:19:09;;;;;;;;;12.50;7.75;;;;;;;;5102673;27;51097;-53
2022/03/18 01:21:58;;;;;;;;;11.50;10.25;;;;;;;;5114404;27;51111;-49
2022/03/18 01:24:43;;;;;;;;;15.25;12.50;;;;;;;;5096322;27;51346;-55
2022/03/18 01:27:28;;;;;;;;;16.00;9.50;;;;;;;;5108164;27;51184;-51
2022/03/18 01:30:16;;;;;;;;;16.00;11.25;;;;;;;;5112718;27;51237;-54
2022/03/18 01:33:02;;;;;;;;;14.00;10.00;;;;;;;;5102749;27;50991;-56
2022/03/18 01:35:48;;;;;;;;;18.00;10.25;;;;;;;;5117186;27;51368;-50
2022/03/18 01:38:32;;;;;;;;;9.50;7.50;;;;;;;;5101226;27;51449;-55
2022/03/18 01:41:22;;;;;;;;;21.00;10.25;;;;;;;;5097828;27;51017;-54
2022/03/18 01:44:12;;;;;;;;;17.50;9.50;;;;;;;;5097604;27;51108;-54
2022/03/18 01:47:03;;;;;;;;;11.75;10.25;;;;;;;;5096294;27;51802;-51
2022/03/18 01:49:53;;;;;;;;;14.75;10.75;;;;;;;;5108310;27;51215;-57
2022/03/18 01:52:39;;;;;;;;;13.75;8.25;;;;;;;;5108591;27;51175;-51
2022/03/18 01:55:27;;;;;;;;;16.50;11.75;;;;;;;;5085200;27;51463;-51
2022/03/18 01:58:21;;;;;;;;;15.50;10.75;;;;;;;;5102206;27;51073;-50
2022/03/18 02:01:05;;;;;;;;;13.75;9.50;;;;;;;;5093530;27;51118;-52
2022/03/18 02:03:50;;;;;;;;;18.75;11.25;;;;;;;;5097344;27;51408;-55
2022/03/18 02:06:35;;;;;;;;;21.00;11.75;;;;;;;;5083840;27;52069;-48
2022/03/18 02:09:23;;;;;;;;;17.50;11.00;;;;;;;;5086885;27;51190;-54
2022/03/18 02:12:10;;;;;;;;;12.75;8.75;;;;;;;;5091448;27;51019;-53
2022/03/18 02:14:54;;;;;;;;;12.00;9.50;;;;;;;;5080317;27;51172;-55
2022/03/18 02:17:43;;;;;;;;;20.75;10.00;;;;;;;;5096923;27;51220;-56
2022/03/18 02:20:31;;;;;;;;;16.00;9.75;;;;;;;;5085090;27;51409;-54
2022/03/18 02:23:17;;;;;;;;;18.00;11.50;;;;;;;;5092806;27;50952;-52
2022/03/18 02:26:15;;;;;;;;;14.25;9.50;;;;;;;;5089001;27;51033;-55
2022/03/18 02:29:01;;;;;;;;;19.50;9.00;;;;;;;;5081797;27;51718;-54
2022/03/18 02:31:50;;;;;;;;;14.50;9.50;;;;;;;;5093255;27;51259;-54
2022/03/18 02:34:38;;;;;;;;;20.25;10.00;;;;;;;;5100961;27;51127;-54
2022/03/18 02:37:25;;;;;;;;;12.50;11.50;;;;;;;;5092507;27;51089;-55
2022/03/18 02:40:11;;;;;;;;;10.75;9.25;;;;;;;;5084943;27;51443;-55
2022/03/18 02:43:04;;;;;;;;;8.50;8.00;;;;;;;;5088704;27;51147;-51
2022/03/18 02:46:08;;;;;;;;;18.00;13.00;;;;;;;;5096090;27;51360;-50
2022/03/18 02:48:54;;;;;;;;;20.50;11.50;;;;;;;;5085527;27;51074;-54
2022/03/18 02:51:38;;;;;;;;;23.50;13.50;;;;;;;;5085439;27;51425;-57
2022/03/18 02:54:24;;;;;;;;;18.50;10.25;;;;;;;;5086064;27;51139;-54
2022/03/18 02:57:11;;;;;;;;;15.75;12.50;;;;;;;;5092102;27;51521;-52
2022/03/18 03:00:06;;;;;;;;;19.75;11.25;;;;;;;;5090042;27;51192;-49
2022/03/18 03:02:53;;;;;;;;;16.50;12.00;;;;;;;;5098539;27;51163;-55
2022/03/18 03:09:27;;;;;;;;;15.00;12.50;;;;;;;;5101162;27;51048;-55
2022/03/18 03:12:15;;;;;;;;;16.50;12.75;;;;;;;;5089531;27;51122;-54
2022/03/18 03:15:00;;;;;;;;;15.50;10.75;;;;;;;;5100875;27;51176;-57
2022/03/18 03:17:45;;;;;;;;;14.50;11.50;;;;;;;;5092233;27;51100;-49
2022/03/18 03:20:33;;;;;;;;;17.75;9.00;;;;;;;;5091537;27;51173;-52
2022/03/18 03:23:28;;;;;;;;;13.25;9.25;;;;;;;;5088894;27;51090;-51
2022/03/18 03:26:14;;;;;;;;;18.75;10.75;;;;;;;;5082169;27;51168;-53
2022/03/18 03:29:00;;;;;;;;;23.25;13.50;;;;;;;;5082206;27;51414;-55
2022/03/18 03:31:54;;;;;;;;;15.75;13.50;;;;;;;;5083822;27;51047;-52
2022/03/18 03:35:05;;;;;;;;;17.50;13.25;;;;;;;;5080517;27;51129;-49
2022/03/18 03:37:49;;;;;;;;;18.75;11.00;;;;;;;;5097393;27;51188;-49
2022/03/18 03:40:38;;;;;;;;;13.25;12.00;;;;;;;;5095530;27;51176;-51
2022/03/18 03:43:23;;;;;;;;;19.75;11.75;;;;;;;;5081160;27;51071;-56
2022/03/18 03:46:11;;;;;;;;;17.00;13.75;;;;;;;;5094973;27;51222;-54
2022/03/18 03:48:56;;;;;;;;;18.25;10.00;;;;;;;;5078442;27;51327;-51
2022/03/18 03:51:42;;;;;;;;;21.00;12.50;;;;;;;;5095322;27;51144;-53
2022/03/18 03:54:37;;;;;;;;;12.75;10.25;;;;;;;;5080019;27;51166;-51
2022/03/18 03:57:24;;;;;;;;;15.75;10.75;;;;;;;;5085541;27;51140;-52
2022/03/18 04:00:12;;;;;;;;;27.00;13.00;;;;;;;;5099049;27;51123;-54
2022/03/18 04:03:18;;;;;;;;;17.00;11.00;;;;;;;;5100196;27;51102;-56
2022/03/18 04:06:13;;;;;;;;;18.50;12.50;;;;;;;;5091339;27;51160;-52
2022/03/18 04:08:59;;;;;;;;;21.00;12.25;;;;;;;;5100596;27;51113;-52
2022/03/18 04:11:54;;;;;;;;;17.50;11.00;;;;;;;;5085266;27;51276;-51
2022/03/18 04:14:38;;;;;;;;;17.00;10.00;;;;;;;;5086713;27;51038;-54
2022/03/18 04:17:26;;;;;;;;;16.00;11.50;;;;;;;;5085423;27;51408;-51
2022/03/18 04:20:11;;;;;;;;;20.50;13.00;;;;;;;;5083020;27;51136;-52
2022/03/18 04:22:57;;;;;;;;;17.00;11.25;;;;;;;;5086260;27;51086;-50
2022/03/18 04:25:43;;;;;;;;;17.75;11.00;;;;;;;;5081825;27;51162;-50
2022/03/18 04:28:30;;;;;;;;;18.25;13.25;;;;;;;;5098453;27;51508;-55
2022/03/18 04:31:30;;;;;;;;;15.75;11.00;;;;;;;;5083680;27;51166;-47
2022/03/18 04:34:17;;;;;;;;;18.25;10.50;;;;;;;;5091458;27;51343;-56
2022/03/18 04:37:02;;;;;;;;;13.25;10.75;;;;;;;;5076348;27;51484;-52
2022/03/18 04:39:50;;;;;;;;;14.00;11.00;;;;;;;;5093467;27;51594;-53
2022/03/18 04:42:50;;;;;;;;;17.00;13.00;;;;;;;;5094579;27;51085;-53
2022/03/18 04:45:41;;;;;;;;;15.00;10.00;;;;;;;;5099171;27;51485;-52
2022/03/18 04:48:27;;;;;;;;;17.25;11.25;;;;;;;;5085274;27;51431;-55
2022/03/18 04:51:11;;;;;;;;;17.75;12.75;;;;;;;;5092003;27;51006;-51
2022/03/18 04:53:57;;;;;;;;;21.25;14.00;;;;;;;;5078902;27;51216;-55
2022/03/18 04:59:52;;;;;;;;;15.25;12.50;;;;;;;;5085126;27;51134;-54
2022/03/18 05:02:37;;;;;;;;;21.50;13.25;;;;;;;;5077845;28;51005;-50
2022/03/18 05:05:25;;;;;;;;;19.00;14.00;;;;;;;;5093052;27;51568;-52
2022/03/18 05:08:10;;;;;;;;;21.00;13.50;;;;;;;;5077161;27;51140;-54
2022/03/18 05:10:59;;;;;;;;;17.75;11.00;;;;;;;;5095296;27;51031;-55
2022/03/18 05:13:45;;;;;;;;;12.00;9.75;;;;;;;;5081587;27;51544;-50
2022/03/18 05:16:29;;;;;;;;;18.25;10.75;;;;;;;;5084572;27;51585;-53
2022/03/18 05:19:26;;;;;;;;;16.75;12.00;;;;;;;;5096184;27;51355;-56
2022/03/18 05:22:14;;;;;;;;;17.00;13.50;;;;;;;;5082576;27;51271;-56
2022/03/18 05:25:01;;;;;;;;;23.25;11.75;;;;;;;;5083848;27;51137;-54
2022/03/18 05:27:49;;;;;;;;;15.25;11.25;;;;;;;;5082953;27;51474;-55
2022/03/18 05:30:52;;;;;;;;;23.00;12.75;;;;;;;;5082691;27;51446;-51
2022/03/18 05:33:38;;;;;;;;;15.50;13.75;;;;;;;;5082872;27;51031;-50
2022/03/18 05:36:26;;;;;;;;;19.50;14.75;;;;;;;;5103132;27;51141;-54
2022/03/18 05:39:12;;;;;;;;;15.50;12.00;;;;;;;;5101199;27;51160;-53
2022/03/18 05:41:56;;;;;;;;;20.75;14.25;;;;;;;;5082105;27;51138;-50
2022/03/18 05:44:42;;;;;;;;;21.25;15.00;;;;;;;;5082793;27;50997;-54
2022/03/18 05:47:29;;;;;;;;;18.75;12.50;;;;;;;;5102075;27;51096;-50
2022/03/18 05:50:16;;;;;;;;;20.50;15.50;;;;;;;;5085721;27;51174;-47
2022/03/18 05:53:09;;;;;;;;;24.50;14.75;;;;;;;;5081813;27;51151;-52
2022/03/18 05:58:56;;;;;;;;;24.25;18.75;;;;;;;;5085651;27;51172;-52
2022/03/18 06:02:01;;;;;;;;;30.00;18.00;;;;;;;;5087284;27;51085;-49
2022/03/18 06:04:58;;;;;;;;;17.50;13.75;;;;;;;;5100118;27;51109;-55
2022/03/18 06:14:22;;;;;;;;;25.00;15.50;;;;;;;;5082597;27;51154;-55
2022/03/18 06:17:26;;;;;;;;;18.00;14.75;;;;;;;;5090090;27;51145;-50
2022/03/18 06:20:13;;;;;;;;;24.25;15.00;;;;;;;;5093185;27;51196;-56
2022/03/18 06:22:58;;;;;;;;;25.75;14.00;;;;;;;;5096521;27;51172;-56
2022/03/18 06:25:53;;;;;;;;;19.50;14.00;;;;;;;;5094382;27;51243;-57
2022/03/18 06:28:48;;;;;;;;;31.50;24.50;;;;;;;;5085841;27;51105;-52
2022/03/18 06:31:32;;;;;;;;;19.50;13.50;;;;;;;;5083929;27;51115;-50
2022/03/18 06:34:20;;;;;;;;;18.25;14.00;;;;;;;;5077118;27;51219;-51
2022/03/18 06:37:07;;;;;;;;;26.75;15.75;;;;;;;;5082732;27;51202;-52
2022/03/18 06:39:55;;;;;;;;;24.50;14.50;;;;;;;;5091172;27;51148;-52
2022/03/18 06:42:40;;;;;;;;;20.25;14.75;;;;;;;;5082025;27;51082;-51
2022/03/18 06:45:27;;;;;;;;;20.50;14.50;;;;;;;;5092144;27;51128;-50
2022/03/18 06:48:11;;;;;;;;;21.50;12.25;;;;;;;;5081013;27;52032;-54
2022/03/18 06:51:17;;;;;;;;;25.25;16.25;;;;;;;;5080861;27;51096;-48
2022/03/18 06:54:04;;;;;;;;;19.75;17.50;;;;;;;;5080649;27;51171;-52
2022/03/18 06:56:51;;;;;;;;;18.00;16.25;;;;;;;;5079942;27;51527;-49
2022/03/18 06:59:39;;;;;;;;;26.25;17.00;;;;;;;;5099909;27;51266;-52
2022/03/18 07:02:26;;;;;;;;;25.50;20.00;;;;;;;;5077253;27;51226;-55
2022/03/18 07:05:12;;;;;;;;;15.50;15.50;;;;;;;;5080449;27;51106;-55
2022/03/18 07:07:59;;;;;;;;;27.75;18.25;;;;;;;;5096214;27;51150;-49
2022/03/18 07:10:45;;;;;;;;;22.25;16.75;;;;;;;;5093541;27;51174;-49
2022/03/18 07:13:31;;;;;;;;;20.25;15.75;;;;;;;;5088273;27;51173;-51
2022/03/18 07:19:34;;;;;;;;;28.75;18.25;;;;;;;;5080614;27;51192;-52
2022/03/18 07:22:20;;;;;;;;;20.75;13.50;;;;;;;;5080400;27;51427;-55
2022/03/18 07:25:05;;;;;;;;;22.50;14.75;;;;;;;;5090809;27;51403;-51
2022/03/18 07:27:50;;;;;;;;;26.25;16.75;;;;;;;;5087817;27;51420;-54
2022/03/18 07:30:53;;;;;;;;;21.00;17.00;;;;;;;;5081470;27;51477;-53
2022/03/18 07:33:39;;;;;;;;;25.50;14.25;;;;;;;;5084546;27;50994;-53
2022/03/18 07:36:37;;;;;;;;;20.25;14.00;;;;;;;;5092857;27;51183;-51
2022/03/18 07:39:44;;;;;;;;;23.50;15.75;;;;;;;;5100084;27;51467;-48
2022/03/18 07:42:42;;;;;;;;;16.00;12.25;;;;;;;;5092266;27;51125;-51
2022/03/18 07:45:30;;;;;;;;;21.50;14.25;;;;;;;;5082509;27;51118;-48
2022/03/18 07:48:26;;;;;;;;;34.00;26.75;;;;;;;;5079320;27;51195;-52
2022/03/18 07:51:18;;;;;;;;;46.50;33.75;;;;;;;;5078960;27;51148;-54
2022/03/18 07:54:03;;;;;;;;;43.00;34.50;;;;;;;;5087457;27;51590;-55
2022/03/18 07:56:54;;;;;;;;;52.25;37.75;;;;;;;;5099118;27;51130;-54
2022/03/18 07:59:42;;;;;;;;;44.25;33.50;;;;;;;;5098754;27;51174;-53
2022/03/18 08:02:51;;;;;;;;;46.25;37.00;;;;;;;;5090458;27;51132;-52
2022/03/18 08:05:57;;;;;;;;;50.00;37.25;;;;;;;;5086744;27;51592;-53
2022/03/18 08:08:42;;;;;;;;;43.25;35.25;;;;;;;;5092445;27;51111;-53
2022/03/18 08:11:26;;;;;;;;;47.25;35.00;;;;;;;;5083151;27;51050;-53
2022/03/18 08:14:13;;;;;;;;;46.00;31.50;;;;;;;;5078650;27;51182;-50
2022/03/18 08:16:58;;;;;;;;;37.75;29.50;;;;;;;;5090831;27;51126;-50
2022/03/18 08:19:44;;;;;;;;;28.75;26.75;;;;;;;;5097636;27;51555;-53
2022/03/18 08:22:28;;;;;;;;;31.25;27.25;;;;;;;;5081290;27;51083;-49
2022/03/18 08:25:13;;;;;;;;;35.25;26.25;;;;;;;;5078607;27;51086;-51
2022/03/18 08:28:00;;;;;;;;;40.25;28.25;;;;;;;;5079083;27;51186;-55
2022/03/18 08:30:45;;;;;;;;;38.25;27.50;;;;;;;;5078517;27;51826;-56
2022/03/18 08:33:43;;;;;;;;;32.00;27.00;;;;;;;;5094030;27;51029;-57
2022/03/18 08:36:29;;;;;;;;;27.00;22.25;;;;;;;;5078389;27;51117;-54
2022/03/18 08:39:16;;;;;;;;;30.75;23.75;;;;;;;;5079936;27;51183;-50
2022/03/18 08:42:00;;;;;;;;;36.00;23.75;;;;;;;;5079033;27;51143;-55
2022/03/18 08:44:55;;;;;;;;;16.75;13.50;;;;;;;;5078591;27;51203;-55
2022/03/18 08:47:46;;;;;;;;;22.50;13.25;;;;;;;;5080237;27;51216;-50
2022/03/18 08:50:41;;;;;;;;;22.25;13.75;;;;;;;;5083711;27;51429;-50
2022/03/18 08:53:44;;;;;;;;;19.50;14.75;;;;;;;;5086260;27;51140;-51
2022/03/18 08:56:31;;;;;;;;;20.25;14.00;;;;;;;;5099101;27;51158;-54
2022/03/18 08:59:15;;;;;;;;;30.00;17.25;;;;;;;;5095049;27;51093;-54
2022/03/18 09:02:01;;;;;;;;;20.25;15.00;;;;;;;;5076836;27;51216;-50
2022/03/18 09:04:48;;;;;;;;;18.25;16.00;;;;;;;;5081839;27;51105;-50
2022/03/18 09:07:54;;;;;;;;;23.00;14.00;;;;;;;;5085202;27;51059;-52
2022/03/18 09:10:38;;;;;;;;;16.25;14.00;;;;;;;;5085394;27;51431;-49
2022/03/18 09:13:41;;;;;;;;;17.75;11.25;;;;;;;;5087643;27;51122;-49
2022/03/18 09:16:30;;;;;;;;;15.25;12.25;;;;;;;;5091596;27;53116;-50
2022/03/18 09:19:23;;;;;;;;;13.75;11.00;;;;;;;;5102858;27;51280;-51
2022/03/18 09:22:09;;;;;;;;;17.75;12.00;;;;;;;;5102424;27;51077;-51
2022/03/18 09:25:16;;;;;;;;;15.75;11.50;;;;;;;;5102379;27;51073;-53
2022/03/18 09:28:03;;;;;;;;;22.25;14.00;;;;;;;;5086440;27;50994;-47
2022/03/18 09:30:48;;;;;;;;;22.50;14.75;;;;;;;;5102392;27;51137;-48
2022/03/18 09:33:34;;;;;;;;;20.00;10.25;;;;;;;;5088602;27;51125;-50
2022/03/18 09:36:20;;;;;;;;;16.00;11.75;;;;;;;;5087240;27;51097;-47
2022/03/18 09:39:17;;;;;;;;;20.25;13.00;;;;;;;;5092009;27;51152;-47
2022/03/18 09:42:03;;;;;;;;;24.75;15.25;;;;;;;;5088241;27;51369;-50
2022/03/18 09:44:48;;;;;;;;;20.75;14.75;;;;;;;;5091000;27;51193;-47
2022/03/18 09:47:35;;;;;;;;;17.75;10.25;;;;;;;;5093279;27;51145;-49
2022/03/18 09:50:25;;;;;;;;;16.25;10.75;;;;;;;;5101326;27;51189;-48
2022/03/18 09:53:10;;;;;;;;;17.75;12.50;;;;;;;;5101437;27;51615;-48
2022/03/18 09:55:54;;;;;;;;;17.75;13.00;;;;;;;;5092774;27;51160;-46
2022/03/18 09:58:54;;;;;;;;;16.50;11.50;;;;;;;;5100431;27;51089;-45
2022/03/18 10:01:40;;;;;;;;;17.50;11.00;;;;;;;;5081171;27;51357;-47
2022/03/18 10:04:26;;;;;;;;;21.00;13.50;;;;;;;;5080403;27;51082;-50
2022/03/18 10:07:15;;;;;;;;;20.50;12.25;;;;;;;;5080722;27;51046;-50
2022/03/18 10:10:01;;;;;;;;;14.50;11.00;;;;;;;;5085475;27;51150;-47
2022/03/18 10:12:56;;;;;;;;;18.75;10.75;;;;;;;;5088264;27;51098;-47
2022/03/18 10:15:43;;;;;;;;;14.50;9.75;;;;;;;;5083727;27;51166;-49
2022/03/18 10:18:29;;;;;;;;;12.00;8.25;;;;;;;;5084483;27;51094;-50
2022/03/18 10:21:14;;;;;;;;;19.50;12.25;;;;;;;;5098393;27;51090;-47
2022/03/18 10:24:31;;;;;;;;;14.50;9.25;;;;;;;;5101436;27;51217;-48
2022/03/18 10:27:35;;;;;;;;;20.50;11.00;;;;;;;;5101435;27;51409;-49
2022/03/18 10:30:20;;;;;;;;;17.50;12.75;;;;;;;;5101742;27;51117;-46
2022/03/18 10:33:06;;;;;;;;;18.00;13.25;;;;;;;;5101441;27;51552;-46
2022/03/18 10:39:25;;;;;;;;;22.25;12.25;;;;;;;;5093469;27;51247;-47
2022/03/18 10:42:12;;;;;;;;;15.00;11.00;;;;;;;;5086020;27;51174;-48
2022/03/18 10:44:59;;;;;;;;;15.50;11.50;;;;;;;;5101449;27;51095;-49
2022/03/18 10:47:54;;;;;;;;;23.00;11.25;;;;;;;;5064659;27;51190;-49
2022/03/18 10:50:48;;;;;;;;;16.25;10.00;;;;;;;;5082565;27;51238;-50
2022/03/18 10:53:37;;;;;;;;;14.50;10.25;;;;;;;;5079859;27;51289;-49
2022/03/18 10:56:24;;;;;;;;;15.25;9.75;;;;;;;;5080272;27;51218;-53
2022/03/18 10:59:12;;;;;;;;;11.25;8.25;;;;;;;;5086918;27;51932;-46
2022/03/18 11:02:00;;;;;;;;;15.50;11.75;;;;;;;;5087874;27;51527;-46
2022/03/18 11:04:45;;;;;;;;;13.00;8.75;;;;;;;;5086431;27;51375;-47
2022/03/18 11:07:31;;;;;;;;;20.75;12.00;;;;;;;;5099925;27;51139;-47
2022/03/18 11:13:27;;;;;;;;;19.75;12.00;;;;;;;;5100066;27;51444;-48
2022/03/18 11:16:12;;;;;;;;;12.25;6.75;;;;;;;;5100007;27;51179;-46
2022/03/18 11:19:16;;;;;;;;;10.75;4.00;;;;;;;;5100726;27;51177;-45
2022/03/18 11:22:04;;;;;;;;;13.25;10.25;;;;;;;;5079970;27;51079;-45
2022/03/18 11:24:52;;;;;;;;;14.75;11.75;;;;;;;;5079850;27;51171;-54
2022/03/18 11:27:41;;;;;;;;;12.25;7.75;;;;;;;;5082232;27;51223;-48
2022/03/18 11:30:39;;;;;;;;;16.00;10.00;;;;;;;;5100497;27;51519;-51
2022/03/18 11:33:25;;;;;;;;;14.50;12.75;;;;;;;;5099814;27;51007;-47
2022/03/18 11:36:10;;;;;;;;;14.25;11.00;;;;;;;;5100008;27;51375;-49
2022/03/18 11:39:12;;;;;;;;;10.75;8.50;;;;;;;;5100002;27;51561;-52
2022/03/18 11:42:03;;;;;;;;;22.50;11.00;;;;;;;;5099907;27;51275;-48
2022/03/18 11:45:12;;;;;;;;;12.75;7.25;;;;;;;;5100006;27;51081;-50
2022/03/18 11:47:57;;;;;;;;;11.75;8.75;;;;;;;;5099661;27;51171;-51
2022/03/18 11:50:43;;;;;;;;;15.75;7.25;;;;;;;;5099864;27;51552;-49
2022/03/18 11:53:54;;;;;;;;;9.75;8.25;;;;;;;;5080479;27;51138;-48
2022/03/18 11:57:09;;;;;;;;;12.00;7.25;;;;;;;;5079189;27;51072;-49
2022/03/18 12:00:00;;;;;;;;;12.75;10.25;;;;;;;;5094828;27;51112;-50
2022/03/18 12:02:44;;;;;;;;;13.00;8.50;;;;;;;;5099869;27;51110;-48
2022/03/18 12:05:29;;;;;;;;;21.50;9.75;;;;;;;;5099053;27;51560;-50
2022/03/18 12:08:15;;;;;;;;;11.75;8.75;;;;;;;;5099567;27;51103;-45
2022/03/18 12:11:23;;;;;;;;;16.00;9.25;;;;;;;;5099313;27;51094;-53
2022/03/18 12:14:10;;;;;;;;;12.25;8.50;;;;;;;;5079758;27;51117;-48
2022/03/18 12:16:58;;;;;;;;;16.00;9.25;;;;;;;;5096571;27;51361;-46
2022/03/18 12:19:54;;;;;;;;;15.00;7.25;;;;;;;;5096392;27;51168;-58
2022/03/18 12:22:44;;;;;;;;;13.50;8.75;;;;;;;;5100066;27;51109;-45
2022/03/18 12:25:29;;;;;;;;;12.50;9.25;;;;;;;;5098951;27;51140;-52
2022/03/18 12:28:15;;;;;;;;;13.75;7.75;;;;;;;;5095127;27;51117;-55
2022/03/18 12:31:13;;;;;;;;;12.25;9.50;;;;;;;;5066514;27;51160;-47
2022/03/18 12:34:03;;;;;;;;;15.75;10.25;;;;;;;;5096098;27;51090;-47
2022/03/18 12:36:48;;;;;;;;;16.25;9.75;;;;;;;;5099410;27;51161;-48
2022/03/18 12:39:36;;;;;;;;;17.75;9.50;;;;;;;;5099321;27;51074;-48
2022/03/18 12:42:22;;;;;;;;;14.50;8.75;;;;;;;;5098017;27;51164;-46
2022/03/18 12:45:07;;;;;;;;;15.25;9.00;;;;;;;;5091202;27;51157;-53
2022/03/18 12:47:56;;;;;;;;;16.75;10.00;;;;;;;;5099069;27;51400;-48
2022/03/18 12:53:46;;;;;;;;;11.25;8.75;;;;;;;;5090154;27;51047;-46
2022/03/18 12:56:33;;;;;;;;;14.00;7.75;;;;;;;;5078514;27;51124;-50
2022/03/18 12:59:28;;;;;;;;;19.75;15.50;;;;;;;;5094705;27;51081;-52
2022/03/18 13:02:17;;;;;;;;;15.25;9.00;;;;;;;;5099476;27;51105;-53
2022/03/18 13:05:08;;;;;;;;;15.25;8.25;;;;;;;;5079155;27;51055;-47
2022/03/18 13:07:55;;;;;;;;;13.75;7.25;;;;;;;;5078537;27;51441;-47
2022/03/18 13:10:40;;;;;;;;;14.00;7.50;;;;;;;;5099121;27;51528;-54
2022/03/18 13:13:27;;;;;;;;;12.00;9.00;;;;;;;;5084428;27;51376;-46
2022/03/18 13:16:13;;;;;;;;;16.75;7.25;;;;;;;;5078337;27;51137;-46
2022/03/18 13:18:58;;;;;;;;;16.00;9.50;;;;;;;;5078944;27;51163;-49
2022/03/18 13:21:44;;;;;;;;;19.75;9.50;;;;;;;;5067086;27;51429;-49
2022/03/18 13:24:28;;;;;;;;;9.25;8.75;;;;;;;;5097441;27;51414;-46
2022/03/18 13:27:13;;;;;;;;;12.50;8.00;;;;;;;;5088536;27;51225;-47
2022/03/18 13:33:04;;;;;;;;;22.75;12.00;;;;;;;;5078169;27;51192;-49
2022/03/18 13:35:49;;;;;;;;;12.75;9.75;;;;;;;;5078140;27;51185;-53
2022/03/18 13:38:36;;;;;;;;;17.25;10.00;;;;;;;;5078018;27;51363;-48
2022/03/18 13:41:20;;;;;;;;;18.75;12.00;;;;;;;;5097874;27;51086;-50
2022/03/18 13:44:04;;;;;;;;;11.75;5.00;;;;;;;;5097564;27;51588;-49
2022/03/18 13:47:01;;;;;;;;;10.25;7.50;;;;;;;;5097238;27;51398;-50
2022/03/18 13:49:52;;;;;;;;;14.50;5.75;;;;;;;;5079280;27;51085;-53
2022/03/18 13:52:36;;;;;;;;;20.25;12.00;;;;;;;;5078418;27;51563;-54
2022/03/18 13:55:28;;;;;;;;;17.00;12.25;;;;;;;;5081458;27;51252;-51
2022/03/18 13:58:12;;;;;;;;;14.00;9.25;;;;;;;;5081194;27;51132;-53
2022/03/18 14:01:13;;;;;;;;;19.00;8.50;;;;;;;;5081515;27;51082;-51
2022/03/18 14:04:00;;;;;;;;;12.75;8.25;;;;;;;;5080164;27;51517;-50
2022/03/18 14:06:55;;;;;;;;;16.50;9.25;;;;;;;;5079432;27;51446;-46
2022/03/18 14:09:53;;;;;;;;;13.25;9.25;;;;;;;;5080235;27;51323;-50
2022/03/18 14:12:37;;;;;;;;;22.50;12.50;;;;;;;;5083961;27;51116;-47
2022/03/18 14:15:22;;;;;;;;;15.25;7.50;;;;;;;;5080546;27;51481;-47
2022/03/18 14:18:07;;;;;;;;;21.25;11.00;;;;;;;;5083267;27;51324;-51
2022/03/18 14:20:57;;;;;;;;;17.75;6.75;;;;;;;;5082640;27;51323;-55
2022/03/18 14:23:46;;;;;;;;;14.75;9.50;;;;;;;;5098881;27;51067;-48
2022/03/18 14:26:51;;;;;;;;;15.25;10.25;;;;;;;;5102397;27;51133;-56
2022/03/18 14:29:38;;;;;;;;;12.25;8.50;;;;;;;;5089706;27;51423;-48
2022/03/18 14:32:34;;;;;;;;;19.00;11.00;;;;;;;;5084904;27;51042;-52
2022/03/18 14:35:19;;;;;;;;;17.00;7.75;;;;;;;;5086443;27;51082;-54
2022/03/18 14:38:04;;;;;;;;;15.25;10.75;;;;;;;;5085264;27;51155;-49
2022/03/18 14:40:50;;;;;;;;;16.00;9.75;;;;;;;;5101882;27;51029;-48
2022/03/18 14:43:35;;;;;;;;;5.75;2.75;;;;;;;;5101366;27;51085;-47
2022/03/18 14:46:21;;;;;;;;;17.75;9.50;;;;;;;;5080921;27;51117;-46
2022/03/18 14:49:15;;;;;;;;;10.50;9.50;;;;;;;;5080591;27;51117;-46
2022/03/18 14:52:02;;;;;;;;;16.25;9.75;;;;;;;;5080700;27;51149;-49
2022/03/18 14:58:10;;;;;;;;;14.75;11.00;;;;;;;;5080503;27;51128;-55
2022/03/18 15:00:55;;;;;;;;;12.00;8.50;;;;;;;;5080817;27;51109;-48
2022/03/18 15:03:39;;;;;;;;;13.75;9.25;;;;;;;;5078605;27;51059;-47
2022/03/18 15:06:25;;;;;;;;;14.25;9.25;;;;;;;;5080885;27;51175;-55
2022/03/18 15:09:09;;;;;;;;;13.50;10.00;;;;;;;;5080121;27;51117;-54
2022/03/18 15:11:54;;;;;;;;;12.75;8.00;;;;;;;;5080593;27;51113;-49
2022/03/18 15:14:39;;;;;;;;;16.00;10.25;;;;;;;;5079745;27;51413;-47
2022/03/18 15:17:24;;;;;;;;;12.75;8.25;;;;;;;;5080064;27;51591;-47
2022/03/18 15:20:08;;;;;;;;;18.50;7.75;;;;;;;;5097313;27;51585;-47
2022/03/18 15:22:53;;;;;;;;;19.50;11.75;;;;;;;;5100191;27;51168;-47
2022/03/18 15:25:37;;;;;;;;;17.25;10.75;;;;;;;;5100597;27;51176;-48
2022/03/18 15:28:21;;;;;;;;;10.50;8.25;;;;;;;;5100476;27;51106;-47
2022/03/18 15:31:06;;;;;;;;;21.00;9.50;;;;;;;;5083048;27;51486;-49
2022/03/18 15:33:52;;;;;;;;;12.00;9.00;;;;;;;;5079035;27;51123;-50
2022/03/18 15:36:36;;;;;;;;;13.75;7.75;;;;;;;;5080287;27;51319;-46
2022/03/18 15:39:20;;;;;;;;;2.00;0.50;;;;;;;;5079700;27;51946;-49
2022/03/18 15:42:05;;;;;;;;;22.00;12.00;;;;;;;;5079661;27;51084;-48
2022/03/18 15:44:49;;;;;;;;;12.75;9.25;;;;;;;;5082276;27;51299;-50
2022/03/18 15:47:34;;;;;;;;;14.75;9.75;;;;;;;;5100039;27;51061;-48
2022/03/18 15:53:04;;;;;;;;;17.75;7.75;;;;;;;;5096351;27;51101;-52
2022/03/18 15:55:49;;;;;;;;;9.25;8.25;;;;;;;;5097145;27;51448;-52
2022/03/18 15:58:33;;;;;;;;;17.00;8.25;;;;;;;;5079621;27;51046;-49
2022/03/18 16:01:18;;;;;;;;;14.75;11.00;;;;;;;;5079904;27;51165;-49
2022/03/18 16:04:03;;;;;;;;;14.00;10.25;;;;;;;;5078443;27;51035;-52
2022/03/18 16:06:47;;;;;;;;;14.00;10.75;;;;;;;;5079690;27;51162;-51
2022/03/18 16:09:33;;;;;;;;;16.75;8.25;;;;;;;;5079503;27;51464;-48
2022/03/18 16:12:19;;;;;;;;;15.50;9.75;;;;;;;;5078824;27;51501;-49
2022/03/18 16:15:04;;;;;;;;;16.00;10.75;;;;;;;;5096204;27;50999;-50
2022/03/18 16:17:48;;;;;;;;;16.50;12.00;;;;;;;;5099616;27;51163;-51
2022/03/18 16:20:33;;;;;;;;;12.50;8.00;;;;;;;;5099491;27;51098;-54
2022/03/18 16:23:17;;;;;;;;;14.25;9.75;;;;;;;;5079225;27;52104;-52
2022/03/18 16:26:02;;;;;;;;;11.75;8.00;;;;;;;;5079127;27;51175;-51
2022/03/18 16:28:46;;;;;;;;;22.00;11.00;;;;;;;;5084691;27;52197;-50
2022/03/18 16:31:30;;;;;;;;;9.75;9.00;;;;;;;;5078868;27;51273;-51
2022/03/18 16:34:15;;;;;;;;;17.50;13.00;;;;;;;;5078340;27;51033;-52
2022/03/18 16:37:00;;;;;;;;;11.25;8.75;;;;;;;;5081675;27;51217;-53
2022/03/18 16:39:45;;;;;;;;;15.75;10.50;;;;;;;;5080072;27;51184;-51
2022/03/18 16:42:30;;;;;;;;;19.50;11.00;;;;;;;;5078495;27;51615;-52
2022/03/18 16:45:15;;;;;;;;;21.50;12.25;;;;;;;;5078546;27;52044;-49
2022/03/18 16:51:01;;;;;;;;;17.00;11.25;;;;;;;;5099039;27;51131;-50
2022/03/18 16:53:46;;;;;;;;;20.00;13.50;;;;;;;;5098926;27;51117;-51
2022/03/18 16:56:30;;;;;;;;;16.75;10.00;;;;;;;;5081233;27;51692;-49
2022/03/18 16:59:15;;;;;;;;;14.50;10.00;;;;;;;;5079859;27;51435;-48
2022/03/18 17:02:00;;;;;;;;;18.25;12.50;;;;;;;;5098779;27;51078;-51
2022/03/18 17:04:45;;;;;;;;;12.50;8.75;;;;;;;;5098995;27;51169;-51
2022/03/18 17:07:29;;;;;;;;;20.25;11.50;;;;;;;;5097923;27;51192;-52
2022/03/18 17:10:14;;;;;;;;;14.75;10.25;;;;;;;;5099048;27;51862;-50
2022/03/18 17:12:58;;;;;;;;;14.75;10.25;;;;;;;;5081317;27;51079;-51
2022/03/18 17:15:44;;;;;;;;;14.00;11.25;;;;;;;;5078067;27;51105;-55
2022/03/18 17:18:28;;;;;;;;;17.00;12.75;;;;;;;;5078544;27;51574;-52
2022/03/18 17:21:14;;;;;;;;;12.25;10.25;;;;;;;;5078917;27;51601;-51
2022/03/18 17:23:58;;;;;;;;;8.00;5.50;;;;;;;;5078523;27;51125;-54
2022/03/18 17:26:43;;;;;;;;;21.00;10.50;;;;;;;;5081215;27;51110;-51
2022/03/18 17:29:28;;;;;;;;;10.50;9.25;;;;;;;;5087063;27;51189;-49
2022/03/18 17:32:12;;;;;;;;;13.75;10.00;;;;;;;;5084238;27;51137;-48
2022/03/18 17:34:56;;;;;;;;;13.75;11.75;;;;;;;;5081879;27;51149;-52
2022/03/18 17:37:41;;;;;;;;;12.25;10.25;;;;;;;;5082174;27;51066;-48
2022/03/18 17:40:26;;;;;;;;;11.25;6.75;;;;;;;;5082306;27;51185;-50
2022/03/18 17:43:10;;;;;;;;;15.00;9.25;;;;;;;;5081207;27;51055;-51
2022/03/18 17:45:56;;;;;;;;;19.50;13.25;;;;;;;;5090092;27;51157;-49
2022/03/18 17:48:42;;;;;;;;;14.25;10.00;;;;;;;;5082127;27;51154;-50
2022/03/18 17:51:28;;;;;;;;;24.50;11.50;;;;;;;;5095757;27;52010;-47
2022/03/18 17:54:13;;;;;;;;;20.00;10.00;;;;;;;;5091968;27;51224;-47
2022/03/18 17:56:57;;;;;;;;;17.00;12.00;;;;;;;;5101995;27;51074;-50
2022/03/18 17:59:42;;;;;;;;;23.50;13.75;;;;;;;;5101812;27;51078;-49